Time;durP1;ratioP1;P1;durP2;ratioP2;P2;SDS_P1;SDS_P2;PMS_P1;PMS_P2;Temp;Humidity;BMP_temperature;BMP_pressure;BME280_temperature;BME280_humidity;BME280_pressure;Samples;Min_cycle;Max_cycle;Signal;HPM_P1;HPM_P2
2021/11/30 00:01:55;;;;;;;7.30;4.82;;;;;;;-0.59;88.17;95406.53;4821604;29;20406;-46
2021/11/30 00:04:28;;;;;;;8.95;5.00;;;;;;;-0.76;88.24;95416.72;4814814;29;20046;-50
2021/11/30 00:06:56;;;;;;;7.55;4.93;;;;;;;-0.67;88.44;95414.31;4822157;29;20042;-47
2021/11/30 00:12:07;;;;;;;9.93;4.63;;;;;;;-0.69;88.48;95427.06;4822499;29;20129;-49
2021/11/30 00:14:36;;;;;;;6.10;4.00;;;;;;;-0.64;88.81;95421.72;4823344;29;20038;-49
2021/11/30 00:17:05;;;;;;;8.55;5.03;;;;;;;-0.76;88.65;95422.03;4823831;29;20057;-47
2021/11/30 00:19:32;;;;;;;8.82;4.68;;;;;;;-0.80;88.62;95428.97;4820119;29;20130;-46
2021/11/30 00:21:59;;;;;;;8.52;5.70;;;;;;;-0.72;88.78;95431.84;4821936;29;20130;-49
2021/11/30 00:24:30;;;;;;;9.70;4.38;;;;;;;-0.72;89.01;95431.03;4817763;29;20520;-46
2021/11/30 00:26:59;;;;;;;7.40;4.35;;;;;;;-0.64;88.91;95433.16;4817057;29;20569;-56
2021/11/30 00:29:26;;;;;;;7.82;4.55;;;;;;;-0.80;88.48;95431.63;4818947;29;20493;-54
2021/11/30 00:31:54;;;;;;;8.48;4.53;;;;;;;-0.88;89.13;95430.31;4822807;29;20052;-54
2021/11/30 00:34:21;;;;;;;7.78;4.43;;;;;;;-0.75;88.84;95437.72;4816263;29;20053;-52
2021/11/30 00:36:50;;;;;;;7.20;3.88;;;;;;;-0.94;89.13;95434.06;4823010;29;20046;-54
2021/11/30 00:39:17;;;;;;;7.68;4.50;;;;;;;-0.76;88.45;95438.75;4823569;29;20057;-49
2021/11/30 00:41:49;;;;;;;6.22;3.97;;;;;;;-0.84;89.00;95447.31;4825129;29;20115;-48
2021/11/30 00:44:20;;;;;;;8.45;3.95;;;;;;;-0.78;89.19;95453.38;4822008;29;20051;-48
2021/11/30 00:46:50;;;;;;;6.28;3.97;;;;;;;-0.81;88.90;95451.28;4822493;29;20133;-52
2021/11/30 00:49:18;;;;;;;8.20;4.03;;;;;;;-0.80;88.62;95456.31;4822723;29;20058;-51
2021/11/30 00:51:45;;;;;;;6.60;4.05;;;;;;;-0.93;89.84;95450.81;4822524;29;20042;-47
2021/11/30 00:54:14;;;;;;;7.47;3.78;;;;;;;-0.83;89.53;95450.75;4821314;29;20054;-49
2021/11/30 00:56:44;;;;;;;5.95;3.40;;;;;;;-0.92;89.97;95455.81;4811463;29;20129;-48
2021/11/30 00:59:11;;;;;;;6.07;3.83;;;;;;;-0.94;90.56;95463.28;4797907;29;20519;-49
2021/11/30 01:01:39;;;;;;;7.35;4.03;;;;;;;-0.80;89.93;95469.59;4820241;29;20051;-50
2021/11/30 01:04:10;;;;;;;6.78;4.30;;;;;;;-0.87;90.48;95482.38;4815093;29;20440;-51
2021/11/30 01:06:38;;;;;;;6.55;4.00;;;;;;;-0.93;91.13;95470.19;4821315;29;20125;-47
2021/11/30 01:09:07;;;;;;;6.25;3.85;;;;;;;-1.19;92.72;95458.84;4822907;29;20065;-46
2021/11/30 01:11:34;;;;;;;6.82;3.60;;;;;;;-0.91;92.58;95473.38;4821757;29;20038;-46
2021/11/30 01:14:02;;;;;;;7.05;4.00;;;;;;;-0.90;93.22;95476.81;4821728;29;20066;-48
2021/11/30 01:16:33;;;;;;;9.20;4.70;;;;;;;-1.10;95.12;95490.94;4822858;29;20057;-47
2021/11/30 01:19:03;;;;;;;8.05;4.40;;;;;;;-0.98;94.94;95473.63;4822656;29;20562;-48
2021/11/30 01:21:32;;;;;;;7.13;4.00;;;;;;;-1.01;94.79;95484.00;4820363;29;20046;-53
2021/11/30 01:23:59;;;;;;;7.25;3.97;;;;;;;-1.04;94.37;95480.03;4819035;29;20046;-55
2021/11/30 01:26:26;;;;;;;6.35;4.05;;;;;;;-0.87;93.38;95476.28;4822574;29;20329;-56
2021/11/30 01:28:53;;;;;;;8.75;4.35;;;;;;;-0.98;93.22;95478.94;4821080;29;20052;-53
2021/11/30 01:31:21;;;;;;;7.30;4.30;;;;;;;-0.89;92.74;95481.06;4822395;29;20048;-51
2021/11/30 01:33:48;;;;;;;6.63;3.63;;;;;;;-1.01;92.44;95491.97;4818329;29;20067;-50
2021/11/30 01:36:15;;;;;;;5.93;3.53;;;;;;;-0.91;92.01;95488.47;4822681;29;20066;-52
2021/11/30 01:38:42;;;;;;;6.95;3.97;;;;;;;-0.93;91.49;95512.66;4836382;29;20053;-50
2021/11/30 01:41:10;;;;;;;5.65;3.65;;;;;;;-0.89;91.42;95486.38;4820741;29;20056;-50
2021/11/30 01:43:44;;;;;;;6.47;4.60;;;;;;;-0.84;90.82;95479.19;4836343;29;20042;-53
2021/11/30 01:46:26;;;;;;;;;;;;;;;-0.87;91.00;95498.31;4822535;29;20039;-50
2021/11/30 01:51:41;;;;;;;6.35;3.63;;;;;;;-0.90;91.27;95490.09;4820760;29;20051;-50
2021/11/30 01:54:07;;;;;;;5.68;3.70;;;;;;;-0.79;91.26;95481.03;4820648;29;20043;-54
2021/11/30 01:56:34;;;;;;;4.88;3.38;;;;;;;-0.79;91.21;95476.50;4819801;29;20095;-54
2021/11/30 01:59:03;;;;;;;5.65;3.90;;;;;;;-0.74;89.85;95492.44;4833983;29;20444;-51
2021/11/30 02:01:30;;;;;;;4.88;2.40;;;;;;;-0.88;89.98;95472.81;4830164;29;20083;-55
2021/11/30 02:03:57;;;;;;;7.60;3.40;;;;;;;-0.72;90.55;95492.94;4814590;29;20496;-56
2021/11/30 02:06:24;;;;;;;7.05;3.50;;;;;;;-0.69;89.94;95491.59;4827377;29;20050;-52
2021/11/30 02:08:51;;;;;;;5.63;3.13;;;;;;;-0.60;89.88;95491.84;4820631;29;20043;-53
2021/11/30 02:11:18;;;;;;;4.78;3.03;;;;;;;-0.73;89.47;95475.41;4819699;29;20528;-54
2021/11/30 02:13:46;;;;;;;6.78;3.53;;;;;;;-0.62;89.82;95496.63;4812633;29;20176;-52
2021/11/30 02:16:13;;;;;;;6.50;3.20;;;;;;;-0.66;90.10;95500.91;4819843;29;20095;-51
2021/11/30 02:18:43;;;;;;;5.18;3.45;;;;;;;-0.69;90.97;95480.19;4821261;29;20049;-46
2021/11/30 02:21:11;;;;;;;5.00;3.38;;;;;;;-0.77;91.75;95479.69;4816144;29;20093;-47
2021/11/30 02:23:47;;;;;;;5.45;3.60;;;;;;;-0.78;92.41;95467.47;4815119;29;20061;-46
2021/11/30 02:26:16;;;;;;;7.63;3.65;;;;;;;-0.82;93.00;95470.94;4821768;29;20074;-49
2021/11/30 02:28:47;;;;;;;5.45;3.10;;;;;;;-0.81;92.80;95470.69;4821031;29;20522;-50
2021/11/30 02:31:17;;;;;;;5.22;3.28;;;;;;;-0.85;92.97;95468.81;4821737;29;20538;-47
2021/11/30 02:33:45;;;;;;;5.10;3.00;;;;;;;-0.88;92.14;95474.66;4817410;29;20046;-46
2021/11/30 02:36:28;;;;;;;5.63;2.90;;;;;;;-0.83;92.51;95470.16;4815047;29;20051;-49
2021/11/30 02:38:59;;;;;;;5.10;3.30;;;;;;;-0.74;92.17;95470.38;4813305;29;20217;-46
2021/11/30 02:41:26;;;;;;;4.53;3.00;;;;;;;-0.77;91.71;95465.63;4820765;29;20142;-52
2021/11/30 02:43:54;;;;;;;5.60;3.28;;;;;;;-0.69;91.50;95470.34;4822611;29;20493;-50
2021/11/30 02:46:32;;;;;;;4.35;2.90;;;;;;;-0.68;91.37;95471.13;4824712;29;20042;-52
2021/11/30 02:49:01;;;;;;;5.63;3.17;;;;;;;-0.68;91.01;95471.97;4823539;29;20142;-52
2021/11/30 02:51:29;;;;;;;5.57;3.13;;;;;;;-0.67;90.68;95462.13;4822737;29;20133;-51
2021/11/30 02:53:59;;;;;;;5.20;3.08;;;;;;;-0.72;91.15;95482.31;4824648;29;20046;-49
2021/11/30 02:56:27;;;;;;;4.85;2.65;;;;;;;-0.59;91.21;95480.94;4823493;29;20050;-51
2021/11/30 02:58:55;;;;;;;5.72;3.10;;;;;;;-0.65;91.00;95482.03;4821884;29;20057;-54
2021/11/30 03:01:23;;;;;;;5.13;2.92;;;;;;;-0.67;90.94;95475.41;4823314;29;20129;-52
2021/11/30 03:03:50;;;;;;;4.57;3.20;;;;;;;-0.64;91.11;95475.66;4820419;29;20055;-51
2021/11/30 03:06:17;;;;;;;4.93;2.92;;;;;;;-0.75;91.97;95495.34;4824467;29;20077;-55
2021/11/30 03:08:44;;;;;;;4.18;2.85;;;;;;;-0.84;92.48;95481.84;4816989;29;20050;-50
2021/11/30 03:11:11;;;;;;;4.43;2.70;;;;;;;-0.69;91.57;95496.13;4822490;29;20142;-49
2021/11/30 03:13:38;;;;;;;4.93;2.95;;;;;;;-0.59;91.29;95488.91;4811439;29;20073;-51
2021/11/30 03:16:05;;;;;;;5.15;3.28;;;;;;;-0.48;90.88;95498.44;4823257;29;20096;-48
2021/11/30 03:18:34;;;;;;;5.13;3.25;;;;;;;-0.62;90.89;95493.97;4824989;29;20050;-49
2021/11/30 03:21:04;;;;;;;4.68;2.92;;;;;;;-0.53;91.00;95495.00;4818856;29;20125;-50
2021/11/30 03:23:31;;;;;;;5.28;3.22;;;;;;;-0.50;90.23;95489.16;4818353;29;20052;-51
2021/11/30 03:25:58;;;;;;;4.90;3.15;;;;;;;-0.62;90.71;95476.16;4816200;29;20046;-48
2021/11/30 03:28:25;;;;;;;5.13;3.40;;;;;;;-0.60;90.25;95479.34;4823156;29;20073;-49
2021/11/30 03:30:54;;;;;;;5.20;3.05;;;;;;;-0.58;90.28;95487.06;4824834;29;20125;-47
2021/11/30 03:36:06;;;;;;;4.57;2.88;;;;;;;-0.37;89.40;95483.22;4824412;29;20052;-53
2021/11/30 03:38:36;;;;;;;5.60;3.15;;;;;;;-0.47;89.90;95488.59;4821950;29;20099;-46
2021/11/30 03:41:02;;;;;;;6.00;3.08;;;;;;;-0.54;89.38;95475.59;4818760;29;20055;-47
2021/11/30 03:43:29;;;;;;;4.30;2.67;;;;;;;-0.40;88.94;95488.31;4809407;29;20137;-53
2021/11/30 03:45:56;;;;;;;4.38;2.80;;;;;;;-0.42;88.57;95479.78;4822340;29;20412;-47
2021/11/30 03:48:23;;;;;;;3.97;2.85;;;;;;;-0.50;88.95;95489.94;4824129;29;20428;-47
2021/11/30 03:50:50;;;;;;;5.82;2.97;;;;;;;-0.33;88.71;95486.13;4821630;29;20134;-51
2021/11/30 03:53:17;;;;;;;4.55;2.53;;;;;;;-0.48;87.40;95487.03;4823133;29;20059;-48
2021/11/30 03:55:44;;;;;;;4.38;2.67;;;;;;;-0.41;88.06;95484.84;4816941;29;20130;-50
2021/11/30 03:58:11;;;;;;;3.38;2.20;;;;;;;-0.47;87.30;95493.91;4823118;29;20050;-48
2021/11/30 04:00:38;;;;;;;4.95;2.65;;;;;;;-0.38;87.74;95497.59;4823585;29;20524;-46
2021/11/30 04:03:05;;;;;;;4.65;2.72;;;;;;;-0.38;87.42;95505.56;4823395;29;20070;-50
2021/11/30 04:05:32;;;;;;;3.83;2.53;;;;;;;-0.38;87.50;95497.59;4822810;29;20046;-48
2021/11/30 04:07:59;;;;;;;4.47;2.72;;;;;;;-0.37;87.52;95512.47;4822181;29;20050;-47
2021/11/30 04:10:26;;;;;;;5.25;2.67;;;;;;;-0.40;87.86;95505.03;4822072;29;20098;-48
2021/11/30 04:12:54;;;;;;;5.35;2.60;;;;;;;-0.48;88.26;95506.41;4815016;29;20046;-50
2021/11/30 04:15:21;;;;;;;5.35;2.67;;;;;;;-0.51;89.59;95514.94;4818755;29;20113;-48
2021/11/30 04:17:48;;;;;;;5.25;2.97;;;;;;;-0.58;90.12;95497.69;4836625;29;20046;-50
2021/11/30 04:20:15;;;;;;;4.55;2.90;;;;;;;-0.64;90.84;95502.22;4821920;29;20050;-50
2021/11/30 04:22:43;;;;;;;5.03;3.35;;;;;;;-0.62;90.98;95507.25;4813527;29;20103;-51
2021/11/30 04:25:12;;;;;;;5.75;3.33;;;;;;;-0.57;90.52;95486.78;4814649;29;20046;-49
2021/11/30 04:27:39;;;;;;;4.25;2.42;;;;;;;-0.63;89.76;95511.78;4822830;29;20079;-48
2021/11/30 04:30:08;;;;;;;5.75;2.75;;;;;;;-0.54;89.76;95504.03;4821884;29;20056;-46
2021/11/30 04:32:35;;;;;;;5.22;2.45;;;;;;;-0.42;88.81;95509.03;4819782;29;20412;-48
2021/11/30 04:35:03;;;;;;;4.25;2.58;;;;;;;-0.44;88.28;95511.97;4822384;29;20137;-47
2021/11/30 04:37:30;;;;;;;5.65;2.78;;;;;;;-0.39;87.74;95500.50;4823733;29;20046;-46
2021/11/30 04:39:57;;;;;;;5.57;2.83;;;;;;;-0.42;86.63;95501.88;4820504;29;20054;-50
2021/11/30 04:42:27;;;;;;;4.43;2.60;;;;;;;-0.31;86.83;95506.06;4823079;29;20501;-47
2021/11/30 04:47:30;;;;;;;3.97;2.35;;;;;;;-0.30;85.77;95505.00;4837568;29;20058;-50
2021/11/30 04:50:00;;;;;;;5.03;2.65;;;;;;;-0.29;86.06;95511.91;4818718;29;20042;-49
2021/11/30 04:52:28;;;;;;;4.55;2.60;;;;;;;-0.24;85.69;95509.22;4823712;29;20148;-54
2021/11/30 04:54:55;;;;;;;4.72;2.70;;;;;;;-0.33;85.25;95510.06;4815972;29;20043;-51
2021/11/30 04:57:22;;;;;;;3.97;2.13;;;;;;;-0.31;84.49;95514.03;4818836;29;20046;-54
2021/11/30 04:59:49;;;;;;;3.35;2.20;;;;;;;-0.33;83.71;95515.38;4820458;29;20081;-55
2021/11/30 05:02:16;;;;;;;4.00;2.63;;;;;;;-0.31;84.96;95508.72;4820907;29;20050;-55
2021/11/30 05:04:45;;;;;;;4.28;2.28;;;;;;;-0.24;84.57;95508.41;4822228;29;20055;-51
2021/11/30 05:07:16;;;;;;;6.32;2.80;;;;;;;-0.25;83.69;95515.59;4814716;29;20073;-48
2021/11/30 05:09:44;;;;;;;6.45;3.05;;;;;;;-0.29;84.38;95521.75;4822483;29;20386;-50
2021/11/30 05:12:11;;;;;;;4.72;2.40;;;;;;;-0.39;84.12;95514.63;4821301;29;20137;-53
2021/11/30 05:14:39;;;;;;;4.18;2.50;;;;;;;-0.37;84.73;95520.44;4820590;29;20077;-50
2021/11/30 05:17:06;;;;;;;6.28;2.70;;;;;;;-0.16;84.23;95512.38;4819623;29;20038;-53
2021/11/30 05:19:33;;;;;;;5.50;2.92;;;;;;;-0.20;83.97;95506.00;4820427;29;20050;-49
2021/11/30 05:22:00;;;;;;;4.50;2.50;;;;;;;-0.30;83.52;95506.84;4821478;29;20046;-51
2021/11/30 05:24:27;;;;;;;4.78;2.50;;;;;;;-0.39;83.24;95511.97;4819578;29;20047;-48
2021/11/30 05:26:56;;;;;;;5.53;2.80;;;;;;;-0.41;83.58;95498.13;4817344;29;20057;-50
2021/11/30 05:29:23;;;;;;;8.30;2.45;;;;;;;-0.30;82.79;95515.63;4819542;29;20508;-50
2021/11/30 05:31:50;;;;;;;6.30;2.97;;;;;;;-0.31;81.95;95503.41;4819699;29;20050;-53
2021/11/30 05:34:17;;;;;;;4.97;2.50;;;;;;;-0.26;83.05;95522.00;4821056;29;20054;-48
2021/11/30 05:36:44;;;;;;;3.53;2.15;;;;;;;-0.34;81.84;95513.78;4835988;29;20052;-48
2021/11/30 05:39:11;;;;;;;6.55;2.72;;;;;;;-0.30;82.01;95510.31;4822254;29;20050;-45
2021/11/30 05:41:39;;;;;;;5.60;2.80;;;;;;;-0.30;82.26;95510.31;4820232;29;20052;-48
2021/11/30 05:44:06;;;;;;;5.47;2.90;;;;;;;-0.31;81.72;95497.31;4819132;29;20043;-51
2021/11/30 05:46:36;;;;;;;5.88;2.97;;;;;;;-0.34;81.48;95493.31;4858866;24;20046;-58
2021/11/30 05:49:05;;;;;;;4.82;2.70;;;;;;;-0.32;80.76;95501.81;4840652;29;20054;-53
2021/11/30 05:51:34;;;;;;;4.15;2.45;;;;;;;-0.36;80.68;95490.13;4838491;29;20516;-56
2021/11/30 05:54:02;;;;;;;5.60;2.90;;;;;;;-0.32;80.82;95475.25;4855847;29;20045;-56
2021/11/30 05:56:29;;;;;;;4.40;2.30;;;;;;;-0.32;81.18;95491.19;4829339;29;20407;-51
2021/11/30 05:58:57;;;;;;;6.00;2.45;;;;;;;-0.36;80.03;95490.13;4827432;29;20486;-50
2021/11/30 06:01:30;;;;;;;6.00;2.78;;;;;;;-0.30;80.40;95478.41;4832909;29;20050;-55
2021/11/30 06:04:01;;;;;;;;;;;;;;;-0.37;79.80;95477.91;4824012;29;20058;-52
2021/11/30 06:06:31;;;;;;;4.03;2.47;;;;;;;-0.33;80.06;95494.09;4822624;29;20302;-53
2021/11/30 06:08:59;;;;;;;7.35;2.47;;;;;;;-0.35;80.70;95475.78;4824890;29;20046;-55
2021/11/30 06:11:27;;;;;;;5.90;2.85;;;;;;;-0.30;80.68;95472.28;4821474;29;20043;-54
2021/11/30 06:13:57;;;;;;;5.00;2.80;;;;;;;-0.30;80.33;95469.63;4829750;29;20054;-52
2021/11/30 06:16:24;;;;;;;7.88;3.28;;;;;;;-0.28;80.75;95470.97;4840609;29;20236;-55
2021/11/30 06:18:51;;;;;;;4.70;2.40;;;;;;;-0.33;80.77;95489.59;4828633;29;20038;-54
2021/11/30 06:21:18;;;;;;;6.82;2.97;;;;;;;-0.30;80.40;95473.09;4825838;29;20319;-54
2021/11/30 06:23:47;;;;;;;6.25;3.00;;;;;;;-0.26;80.93;95476.81;4826373;29;20061;-55
2021/11/30 06:26:15;;;;;;;5.82;2.90;;;;;;;-0.31;80.23;95487.47;4826637;29;20165;-55
2021/11/30 06:28:43;;;;;;;5.15;2.72;;;;;;;-0.33;80.35;95473.63;4838469;29;20054;-53
2021/11/30 06:31:10;;;;;;;5.93;2.53;;;;;;;-0.36;80.25;95484.81;4828798;29;20073;-51
2021/11/30 06:33:37;;;;;;;7.25;2.63;;;;;;;-0.42;80.35;95469.97;4831437;29;20054;-49
2021/11/30 06:36:04;;;;;;;7.97;3.20;;;;;;;-0.33;80.46;95472.84;4825424;29;20046;-47
2021/11/30 06:38:32;;;;;;;7.55;2.78;;;;;;;-0.32;80.62;95477.91;4835593;29;20141;-52
2021/11/30 06:40:59;;;;;;;7.38;2.70;;;;;;;-0.29;79.81;95480.00;4838308;29;20042;-48
2021/11/30 06:43:26;;;;;;;5.57;2.28;;;;;;;-0.29;80.19;95477.34;4836406;29;20049;-50
2021/11/30 06:45:53;;;;;;;8.55;3.95;;;;;;;-0.29;80.25;95487.19;4836310;29;20051;-53
2021/11/30 06:48:21;;;;;;;4.43;2.88;;;;;;;-0.24;80.17;95472.00;4832002;29;20500;-48
2021/11/30 06:50:48;;;;;;;5.00;3.10;;;;;;;-0.22;80.23;95468.28;4825297;29;20046;-49
2021/11/30 06:53:15;;;;;;;7.70;3.00;;;;;;;-0.29;79.92;95472.03;4825372;29;20133;-54
2021/11/30 06:55:42;;;;;;;4.93;2.72;;;;;;;-0.18;80.54;95474.63;4839413;29;20053;-53
2021/11/30 06:58:09;;;;;;;5.32;2.50;;;;;;;-0.14;79.97;95465.03;4827328;29;20150;-54
2021/11/30 07:00:37;;;;;;;6.32;2.95;;;;;;;-0.13;79.13;95467.44;4824114;29;20429;-53
2021/11/30 07:03:04;;;;;;;6.38;2.88;;;;;;;-0.10;79.06;95472.19;4824992;29;20046;-53
2021/11/30 07:05:38;;;;;;;6.10;2.50;;;;;;;-0.12;78.49;95494.81;4839087;29;20050;-52
2021/11/30 07:08:23;;;;;;;5.68;2.67;;;;;;;-0.15;78.90;95469.56;4840388;29;20517;-50
2021/11/30 07:15:51;;;;;;;6.78;2.50;;;;;;;-0.13;77.79;95450.66;4839413;29;20561;-49
2021/11/30 07:18:18;;;;;;;7.97;2.80;;;;;;;-0.09;77.71;95457.03;4824652;29;20053;-50
2021/11/30 07:20:46;;;;;;;4.45;2.85;;;;;;;-0.07;77.65;95457.53;4839071;29;20041;-48
2021/11/30 07:23:14;;;;;;;6.38;2.80;;;;;;;-0.04;77.08;95460.44;4829610;29;20054;-54
2021/11/30 07:25:41;;;;;;;4.47;2.45;;;;;;;-0.03;76.31;95461.25;4835781;29;20046;-50
2021/11/30 07:28:09;;;;;;;5.65;2.33;;;;;;;-0.06;75.23;95456.50;4829056;29;20085;-53
2021/11/30 07:30:37;;;;;;;5.05;2.42;;;;;;;-0.05;76.09;95455.41;4839153;29;20413;-52
2021/11/30 07:33:05;;;;;;;5.35;2.53;;;;;;;-0.10;76.01;95452.78;4826925;29;20053;-53
2021/11/30 07:35:32;;;;;;;4.22;2.28;;;;;;;-0.04;75.36;95449.78;4826843;29;20110;-50
2021/11/30 07:38:00;;;;;;;6.13;2.30;;;;;;;-0.04;75.48;95460.44;4828362;29;20045;-52
2021/11/30 07:40:27;;;;;;;4.35;2.15;;;;;;;-0.01;75.34;95435.16;4826260;29;20460;-55
2021/11/30 07:42:54;;;;;;;8.50;3.03;;;;;;;0.05;75.44;95446.56;4826775;29;20054;-57
2021/11/30 07:45:21;;;;;;;3.97;2.17;;;;;;;0.06;75.17;95443.63;4827536;29;20042;-55
2021/11/30 07:47:48;;;;;;;4.32;2.40;;;;;;;-0.09;75.40;95441.09;4831373;29;20046;-57
2021/11/30 07:50:15;;;;;;;4.90;2.25;;;;;;;0.04;76.10;95445.78;4814213;29;20054;-58
2021/11/30 07:52:43;;;;;;;4.70;2.75;;;;;;;-0.07;76.57;95428.28;4835170;29;20136;-56
2021/11/30 07:55:14;;;;;;;3.50;2.33;;;;;;;0.00;77.45;95431.44;4837531;29;20053;-52
2021/11/30 07:57:42;;;;;;;4.10;2.30;;;;;;;-0.06;78.11;95432.56;4841629;29;20061;-51
2021/11/30 08:00:13;;;;;;;4.07;2.40;;;;;;;-0.10;78.44;95429.66;4829477;29;20129;-48
2021/11/30 08:02:41;;;;;;;8.10;2.47;;;;;;;-0.14;78.82;95425.94;4847084;29;20065;-53
2021/11/30 08:05:09;;;;;;;6.65;3.60;;;;;;;-0.21;79.95;95414.81;4833165;29;20119;-51
2021/11/30 08:07:37;;;;;;;4.30;1.98;;;;;;;-0.40;81.08;95412.00;4829986;29;20050;-53
2021/11/30 08:10:08;;;;;;;7.32;2.70;;;;;;;-0.37;81.26;95423.97;4836858;29;20156;-48
2021/11/30 08:12:35;;;;;;;4.13;1.85;;;;;;;-0.56;82.36;95413.97;4824997;29;20466;-49
2021/11/30 08:15:03;;;;;;;5.07;2.20;;;;;;;-0.42;82.13;95400.88;4840887;29;20084;-54
2021/11/30 08:17:50;;;;;;;4.00;1.98;;;;;;;-0.37;82.01;95398.19;4834442;29;20038;-55
2021/11/30 08:20:18;;;;;;;4.47;2.00;;;;;;;-0.38;81.13;95396.59;4824033;29;20513;-54
2021/11/30 08:22:46;;;;;;;6.15;3.05;;;;;;;-0.39;81.11;95392.38;4830157;29;20042;-52
2021/11/30 08:25:13;;;;;;;5.18;1.92;;;;;;;-0.31;80.12;95393.63;4836372;29;20054;-54
2021/11/30 08:27:41;;;;;;;5.95;2.10;;;;;;;-0.38;80.55;95382.53;4830743;29;20413;-55
2021/11/30 08:30:08;;;;;;;4.05;1.80;;;;;;;-0.46;80.11;95386.53;4825213;29;20390;-56
2021/11/30 08:32:37;;;;;;;4.35;2.20;;;;;;;-0.34;79.32;95371.03;4829654;29;20436;-54
2021/11/30 08:35:05;;;;;;;3.63;2.30;;;;;;;-0.29;79.01;95362.25;4843793;29;20477;-51
2021/11/30 08:37:32;;;;;;;3.72;1.90;;;;;;;-0.29;79.67;95375.56;4841061;29;20045;-52
2021/11/30 08:39:59;;;;;;;4.13;2.20;;;;;;;-0.31;79.44;95369.72;4829025;29;20086;-51
2021/11/30 08:42:26;;;;;;;8.40;2.47;;;;;;;-0.19;79.46;95385.31;4843274;29;20402;-51
2021/11/30 08:44:53;;;;;;;8.32;2.53;;;;;;;-0.32;79.52;95360.94;4836166;29;20064;-51
2021/11/30 08:47:23;;;;;;;4.82;2.33;;;;;;;-0.40;80.41;95356.19;4847192;29;20053;-50
2021/11/30 08:49:52;;;;;;;3.67;2.20;;;;;;;-0.48;81.31;95372.75;4849883;29;20539;-50
2021/11/30 08:52:25;;;;;;;8.32;2.33;;;;;;;-0.53;82.02;95376.22;4825937;29;20221;-49
2021/11/30 08:54:52;;;;;;;;;;;;;;;-0.68;83.74;95367.53;4840250;29;20054;-51
2021/11/30 08:57:20;;;;;;;4.82;2.65;;;;;;;-0.74;84.70;95372.91;4827170;29;20015;-47
2021/11/30 08:59:47;;;;;;;4.90;2.58;;;;;;;-0.90;87.35;95374.03;4831913;29;20140;-48
2021/11/30 09:02:15;;;;;;;6.45;3.05;;;;;;;-0.98;88.93;95351.47;4829865;29;20124;-48
2021/11/30 09:04:43;;;;;;;5.40;2.72;;;;;;;-0.93;89.86;95369.28;4827192;29;20042;-49
2021/11/30 09:07:10;;;;;;;6.05;3.08;;;;;;;-0.97;91.13;95354.97;4831015;29;20561;-48
2021/11/30 09:09:37;;;;;;;5.20;2.80;;;;;;;-1.25;93.51;95357.19;4825856;29;20084;-49
2021/11/30 09:12:05;;;;;;;6.25;3.35;;;;;;;-1.15;93.59;95356.34;4838991;29;20133;-47
2021/11/30 09:14:32;;;;;;;5.88;2.95;;;;;;;-1.23;93.58;95362.25;4844401;29;20081;-49
2021/11/30 09:16:59;;;;;;;6.43;2.75;;;;;;;-1.28;94.00;95347.09;4837304;29;20106;-53
2021/11/30 09:19:26;;;;;;;8.02;3.13;;;;;;;-1.26;94.95;95334.38;4816860;29;20132;-52
2021/11/30 09:21:54;;;;;;;5.00;2.78;;;;;;;-1.31;95.49;95355.59;4843789;29;20057;-52
2021/11/30 09:24:21;;;;;;;6.07;2.63;;;;;;;-1.28;95.65;95335.69;4835301;29;20061;-54
2021/11/30 09:26:48;;;;;;;4.13;2.53;;;;;;;-1.44;96.05;95332.31;4832919;29;20050;-51
2021/11/30 09:29:16;;;;;;;4.20;2.28;;;;;;;-1.39;96.01;95329.66;4840599;29;20510;-50
2021/11/30 09:31:43;;;;;;;4.55;2.55;;;;;;;-1.41;96.32;95319.28;4844492;29;20048;-53
2021/11/30 09:34:10;;;;;;;6.47;2.45;;;;;;;-1.44;95.92;95319.03;4829166;29;20103;-49
2021/11/30 09:36:37;;;;;;;9.90;2.38;;;;;;;-1.34;95.56;95332.25;4833564;29;20458;-48
2021/11/30 09:39:07;;;;;;;5.97;1.95;;;;;;;-1.37;94.15;95316.88;4843182;29;20046;-51
2021/11/30 09:41:34;;;;;;;5.43;2.42;;;;;;;-1.33;95.17;95315.28;4828435;29;20165;-52
2021/11/30 09:44:04;;;;;;;4.82;2.22;;;;;;;-1.28;93.70;95323.22;4832882;29;20062;-52
2021/11/30 09:46:31;;;;;;;10.63;2.35;;;;;;;-1.36;94.55;95302.56;4825331;29;20046;-53
2021/11/30 09:48:58;;;;;;;2.60;1.60;;;;;;;-1.37;94.37;95327.50;4829301;29;20050;-55
2021/11/30 09:51:25;;;;;;;3.67;1.60;;;;;;;-1.32;94.96;95308.91;4831433;29;20133;-55
2021/11/30 09:53:52;;;;;;;3.10;1.40;;;;;;;-1.30;94.99;95306.78;4841951;29;20506;-53
2021/11/30 09:56:20;;;;;;;3.10;1.25;;;;;;;-1.24;95.01;95289.75;4842834;29;20060;-55
2021/11/30 09:58:47;;;;;;;9.60;1.83;;;;;;;-1.33;94.11;95288.75;4839049;29;20423;-57
2021/11/30 10:01:15;;;;;;;2.67;1.50;;;;;;;-1.20;93.91;95269.59;4841457;29;20043;-56
2021/11/30 10:03:43;;;;;;;3.13;1.42;;;;;;;-1.15;93.68;95275.94;4837413;29;20411;-57
2021/11/30 10:06:12;;;;;;;5.63;1.60;;;;;;;-1.18;93.28;95275.41;4837891;29;20424;-57
2021/11/30 10:08:41;;;;;;;2.92;1.27;;;;;;;-1.21;93.55;95262.66;4835019;29;20042;-57
2021/11/30 10:11:24;;;;;;;2.35;1.27;;;;;;;-1.19;94.08;95259.75;4842628;29;20058;-57
2021/11/30 10:14:27;;;;;;;5.50;1.42;;;;;;;-1.26;94.64;95246.78;4834616;29;20505;-53
2021/11/30 10:17:10;;;;;;;4.50;2.35;;;;;;;-1.23;94.92;95248.91;4828701;29;20451;-55
2021/11/30 10:19:41;;;;;;;4.50;1.50;;;;;;;-1.23;95.46;95237.50;4835389;29;20042;-51
2021/11/30 10:22:08;;;;;;;2.55;1.50;;;;;;;-1.15;95.28;95238.75;4835906;29;20050;-52
2021/11/30 10:24:36;;;;;;;4.28;1.45;;;;;;;-1.19;94.74;95222.59;4826533;29;20046;-52
2021/11/30 10:27:03;;;;;;;3.75;1.45;;;;;;;-1.16;94.93;95194.72;4843506;29;20069;-49
2021/11/30 10:29:39;;;;;;;3.05;1.63;;;;;;;-1.07;95.24;95209.78;4835792;29;20175;-50
2021/11/30 10:32:06;;;;;;;5.38;1.38;;;;;;;-1.11;92.65;95207.94;4834472;29;20053;-52
2021/11/30 10:34:33;;;;;;;4.10;1.55;;;;;;;-0.98;93.11;95223.25;4839267;29;20077;-51
2021/11/30 10:37:09;;;;;;;4.00;1.50;;;;;;;-0.96;92.97;95202.53;4852256;29;20042;-51
2021/11/30 10:39:40;;;;;;;4.40;1.40;;;;;;;-0.95;93.09;95188.97;4841874;29;20050;-54
2021/11/30 10:42:12;;;;;;;3.28;1.25;;;;;;;-0.89;93.30;95203.00;4842068;29;20432;-51
2021/11/30 10:44:39;;;;;;;1.98;1.10;;;;;;;-0.89;91.85;95192.38;4836674;29;20050;-51
2021/11/30 10:47:15;;;;;;;2.72;1.35;;;;;;;-0.84;93.24;95218.13;4837324;29;20046;-50
2021/11/30 10:49:57;;;;;;;2.75;1.30;;;;;;;-0.78;92.86;95196.56;4837997;29;20465;-44
2021/11/30 10:52:30;;;;;;;3.88;1.80;;;;;;;-0.76;91.90;95172.34;4838501;29;20051;-49
2021/11/30 10:55:06;;;;;;;5.03;1.75;;;;;;;-0.66;92.13;95182.88;4830403;29;20056;-50
2021/11/30 10:57:35;;;;;;;2.88;1.20;;;;;;;-0.71;90.62;95174.97;4840434;29;20046;-50
2021/11/30 11:00:37;;;;;;;5.45;1.15;;;;;;;-0.71;91.92;95194.38;4843107;29;20050;-49
2021/11/30 11:03:09;;;;;;;3.92;1.20;;;;;;;-0.65;92.09;95187.16;4837749;29;20046;-48
2021/11/30 11:05:47;;;;;;;2.00;0.87;;;;;;;-0.67;92.83;95168.03;4835865;29;20058;-50
2021/11/30 11:08:19;;;;;;;4.13;1.15;;;;;;;-0.68;93.07;95160.31;4831596;29;20042;-50
2021/11/30 11:10:57;;;;;;;4.15;1.70;;;;;;;-0.65;93.89;95167.75;4837539;29;20046;-46
2021/11/30 11:13:29;;;;;;;2.53;1.05;;;;;;;-0.59;93.88;95162.09;4838378;29;20102;-48
2021/11/30 11:16:04;;;;;;;1.20;0.85;;;;;;;-0.74;93.58;95163.03;4844513;29;20098;-47
2021/11/30 11:18:37;;;;;;;2.00;1.20;;;;;;;-0.62;94.05;95156.56;4833029;29;20048;-48
2021/11/30 11:21:30;;;;;;;1.60;0.90;;;;;;;-0.62;93.62;95159.22;4837561;29;20125;-50
2021/11/30 11:24:10;;;;;;;2.67;1.00;;;;;;;-0.57;93.82;95137.94;4841475;29;20138;-53
2021/11/30 11:26:40;;;;;;;1.48;0.98;;;;;;;-0.43;93.32;95144.16;4835105;29;20057;-54
2021/11/30 11:29:23;;;;;;;4.25;1.10;;;;;;;-0.48;92.18;95136.25;4829802;29;20553;-51
2021/11/30 11:31:58;;;;;;;1.08;0.80;;;;;;;-0.49;90.95;95131.97;4842593;29;20053;-50
2021/11/30 11:34:28;;;;;;;1.90;1.02;;;;;;;-0.50;91.68;95127.75;4848857;29;20538;-51
2021/11/30 11:36:57;;;;;;;3.60;1.33;;;;;;;-0.42;91.62;95135.13;4836057;29;20046;-51
2021/11/30 11:39:25;;;;;;;3.78;1.45;;;;;;;-0.43;90.79;95098.97;4833034;29;20075;-54
2021/11/30 11:41:58;;;;;;;1.30;0.93;;;;;;;-0.37;90.92;95119.09;4837029;29;20518;-52
2021/11/30 11:44:25;;;;;;;2.28;1.10;;;;;;;-0.32;90.67;95135.00;4839941;29;20451;-49
2021/11/30 11:47:00;;;;;;;2.80;1.00;;;;;;;-0.18;89.52;95121.03;4841477;29;20037;-50
2021/11/30 11:49:32;;;;;;;1.42;0.80;;;;;;;-0.30;88.40;95105.47;4839734;29;20084;-50
2021/11/30 11:52:00;;;;;;;1.40;0.80;;;;;;;-0.26;89.38;95123.25;4830811;29;20039;-59
2021/11/30 11:54:30;;;;;;;2.28;0.95;;;;;;;-0.19;88.29;95122.91;4834501;29;20453;-50
2021/11/30 11:57:11;;;;;;;2.50;1.10;;;;;;;-0.16;89.78;95105.56;4834668;29;20054;-51
2021/11/30 11:59:43;;;;;;;2.95;0.90;;;;;;;-0.10;86.80;95107.09;4826869;29;20081;-47